Time;durP1;ratioP1;P1;durP2;ratioP2;P2;SDS_P1;SDS_P2;PMS_P1;PMS_P2;Temp;Humidity;BMP_temperature;BMP_pressure;BME280_temperature;BME280_humidity;BME280_pressure;Samples;Min_cycle;Max_cycle;Signal;HPM_P1;HPM_P2
2022/05/04 00:02:15;;;;;;;13.40;9.98;;;13.30;99.90;;;;;;6215534;23;20082;-90
2022/05/04 00:04:41;;;;;;;13.75;9.93;;;13.30;99.90;;;;;;6216584;23;20005;-91
2022/05/04 00:07:07;;;;;;;12.82;9.75;;;13.20;99.90;;;;;;6216170;23;20084;-90
2022/05/04 00:09:32;;;;;;;15.07;10.30;;;13.20;99.90;;;;;;6214515;23;20025;-90
2022/05/04 00:11:58;;;;;;;12.75;9.82;;;13.10;99.90;;;;;;6214937;23;20036;-90
2022/05/04 00:14:25;;;;;;;12.40;10.13;;;13.10;99.90;;;;;;6188864;23;20005;-90
2022/05/04 00:16:52;;;;;;;13.15;8.63;;;13.10;99.90;;;;;;6189172;23;20056;-89
2022/05/04 00:19:17;;;;;;;13.43;10.05;;;13.20;99.90;;;;;;6215626;23;20579;-90
2022/05/04 00:21:43;;;;;;;10.23;8.80;;;13.10;99.90;;;;;;6213881;23;20004;-91
2022/05/04 00:24:09;;;;;;;10.93;9.65;;;13.10;99.90;;;;;;6189509;23;20009;-91
2022/05/04 00:26:34;;;;;;;11.55;9.65;;;13.10;99.90;;;;;;6214849;23;20005;-92
2022/05/04 00:29:01;;;;;;;13.00;9.98;;;13.00;99.90;;;;;;6215944;23;20001;-91
2022/05/04 00:31:27;;;;;;;12.75;10.25;;;13.00;99.90;;;;;;6213443;23;20488;-91
2022/05/04 00:33:52;;;;;;;13.25;10.00;;;12.90;99.90;;;;;;6214594;23;20039;-91
2022/05/04 00:36:18;;;;;;;12.38;9.75;;;12.90;99.90;;;;;;6216780;23;20055;-91
2022/05/04 00:38:43;;;;;;;13.82;9.88;;;12.90;99.90;;;;;;6216451;23;19996;-91
2022/05/04 00:41:09;;;;;;;13.50;9.30;;;13.00;99.90;;;;;;6215977;23;20634;-91
2022/05/04 00:43:35;;;;;;;11.63;9.30;;;12.90;99.90;;;;;;6214450;23;20335;-91
2022/05/04 00:46:00;;;;;;;13.40;9.93;;;12.80;99.90;;;;;;6215247;23;20501;-92
2022/05/04 00:48:26;;;;;;;11.88;9.10;;;12.80;99.90;;;;;;6189782;23;20451;-93
2022/05/04 00:50:54;;;;;;;13.77;9.60;;;12.70;99.90;;;;;;6215567;23;20001;-92
2022/05/04 00:53:20;;;;;;;19.10;11.05;;;12.70;99.90;;;;;;6224924;23;20431;-91
2022/05/04 00:55:47;;;;;;;14.57;10.10;;;12.60;99.90;;;;;;6218742;23;20000;-92
2022/05/04 01:01:00;;;;;;;12.35;9.95;;;12.50;99.90;;;;;;6215704;23;20378;-91
2022/05/04 01:03:26;;;;;;;12.88;9.90;;;12.40;99.90;;;;;;6214370;23;20081;-91
2022/05/04 01:05:52;;;;;;;11.70;9.65;;;12.40;99.90;;;;;;6215679;23;20061;-91
2022/05/04 01:08:17;;;;;;;14.75;9.60;;;12.40;99.90;;;;;;6215905;23;20071;-90
2022/05/04 01:10:43;;;;;;;11.77;8.88;;;12.40;99.90;;;;;;6215569;23;20008;-91
2022/05/04 01:13:09;;;;;;;18.02;10.45;;;12.30;99.90;;;;;;6215626;23;20004;-90
2022/05/04 01:15:35;;;;;;;14.40;9.40;;;12.30;99.90;;;;;;6214534;23;20032;-90
2022/05/04 01:18:00;;;;;;;13.20;9.15;;;12.30;99.90;;;;;;6216073;23;20005;-90
2022/05/04 01:20:27;;;;;;;13.68;9.35;;;12.20;99.90;;;;;;6214016;23;20466;-90
2022/05/04 01:22:53;;;;;;;12.68;9.75;;;12.10;99.90;;;;;;6215688;23;20381;-90
2022/05/04 01:25:19;;;;;;;16.02;10.35;;;12.00;99.90;;;;;;6213949;23;20004;-90
2022/05/04 01:27:45;;;;;;;17.85;11.07;;;12.00;99.90;;;;;;6215430;23;20000;-90
2022/05/04 01:30:12;;;;;;;15.90;10.68;;;12.00;99.90;;;;;;6188630;23;20414;-90
2022/05/04 01:32:38;;;;;;;12.60;9.63;;;12.00;99.90;;;;;;6188456;23;20083;-89
2022/05/04 01:35:04;;;;;;;12.35;10.52;;;11.90;99.90;;;;;;6215163;23;20059;-90
2022/05/04 01:37:30;;;;;;;16.77;10.55;;;11.90;99.90;;;;;;6212952;23;20455;-89
2022/05/04 01:39:55;;;;;;;14.93;10.65;;;11.90;99.90;;;;;;6188361;23;20008;-89
2022/05/04 01:42:24;;;;;;;12.65;10.02;;;11.80;99.90;;;;;;6212747;23;20004;-89
2022/05/04 01:44:50;;;;;;;20.15;10.45;;;11.90;99.90;;;;;;6214636;23;20656;-90
2022/05/04 01:47:16;;;;;;;15.40;10.02;;;11.90;99.90;;;;;;6213311;23;20027;-88
2022/05/04 01:49:42;;;;;;;12.45;9.95;;;11.80;99.90;;;;;;6188189;23;20001;-89
2022/05/04 01:52:07;;;;;;;12.73;10.50;;;11.70;99.90;;;;;;6212837;23;20055;-89
2022/05/04 01:54:33;;;;;;;14.18;10.23;;;11.70;99.90;;;;;;6215486;23;20023;-91
2022/05/04 01:56:59;;;;;;;15.32;11.23;;;11.70;99.90;;;;;;6216547;23;20335;-91
2022/05/04 01:59:25;;;;;;;16.33;10.73;;;11.70;99.90;;;;;;6188943;23;20005;-90
2022/05/04 02:01:51;;;;;;;15.80;11.88;;;11.70;99.90;;;;;;6214833;23;20009;-91
2022/05/04 02:04:18;;;;;;;16.58;11.48;;;11.70;99.90;;;;;;6217568;23;20087;-90
2022/05/04 02:06:44;;;;;;;13.95;11.07;;;11.60;99.90;;;;;;6215663;23;20039;-92
2022/05/04 02:09:12;;;;;;;22.00;11.82;;;11.60;99.90;;;;;;6215428;23;20009;-93
2022/05/04 02:11:38;;;;;;;19.27;11.13;;;11.60;99.90;;;;;;6217661;23;20054;-92
2022/05/04 02:14:04;;;;;;;16.35;11.23;;;11.60;99.90;;;;;;6218487;23;20004;-91
2022/05/04 02:16:30;;;;;;;13.07;10.60;;;11.60;99.90;;;;;;6214887;23;20509;-90
2022/05/04 02:18:57;;;;;;;14.13;11.63;;;11.40;99.90;;;;;;6218340;23;20080;-92
2022/05/04 02:21:22;;;;;;;20.60;12.98;;;11.30;99.90;;;;;;6217106;23;20001;-91
2022/05/04 02:23:48;;;;;;;19.90;10.77;;;11.30;99.90;;;;;;6217450;23;20001;-92
2022/05/04 02:26:14;;;;;;;16.50;11.43;;;11.30;99.90;;;;;;6192336;23;20030;-92
2022/05/04 02:28:39;;;;;;;19.00;10.95;;;11.20;99.90;;;;;;6217691;23;20023;-90
2022/05/04 02:31:05;;;;;;;15.77;11.35;;;11.30;99.90;;;;;;6215003;23;20080;-90
2022/05/04 02:33:31;;;;;;;17.42;10.45;;;11.20;99.90;;;;;;6213715;23;20005;-90
2022/05/04 02:38:40;;;;;;;14.10;10.98;;;11.00;99.90;;;;;;6214834;23;20079;-89
2022/05/04 02:41:06;;;;;;;16.30;11.20;;;11.00;99.90;;;;;;6214770;23;20423;-89
2022/05/04 02:43:32;;;;;;;14.85;11.40;;;11.10;99.90;;;;;;6188172;23;20095;-90
2022/05/04 02:46:10;;;;;;;16.30;11.43;;;11.10;99.90;;;;;;6215112;23;20005;-90
2022/05/04 02:48:36;;;;;;;18.50;12.05;;;11.00;99.90;;;;;;6213484;23;20004;-90
2022/05/04 02:51:01;;;;;;;23.75;11.85;;;11.00;99.90;;;;;;6188018;23;20427;-90
2022/05/04 02:53:27;;;;;;;19.17;12.43;;;10.90;99.90;;;;;;6214855;23;20060;-90
2022/05/04 02:55:53;;;;;;;17.25;12.65;;;10.80;99.90;;;;;;6214744;23;20001;-90
2022/05/04 02:58:18;;;;;;;16.55;12.38;;;10.90;99.90;;;;;;6214617;23;20016;-90
2022/05/04 03:00:44;;;;;;;15.57;12.48;;;10.90;99.90;;;;;;6214808;23;20011;-90
2022/05/04 03:03:10;;;;;;;17.75;12.98;;;10.80;99.90;;;;;;6215056;23;20413;-91
2022/05/04 03:05:36;;;;;;;16.98;12.90;;;10.80;99.90;;;;;;6215642;23;20048;-91
2022/05/04 03:08:02;;;;;;;15.98;12.75;;;10.80;99.90;;;;;;6213383;23;20027;-91
2022/05/04 03:10:27;;;;;;;15.05;12.02;;;10.80;99.90;;;;;;6214986;23;20012;-91
2022/05/04 03:12:53;;;;;;;15.93;11.88;;;10.80;99.90;;;;;;6215699;23;20005;-92
2022/05/04 03:15:19;;;;;;;20.15;12.63;;;10.80;99.90;;;;;;6221746;23;20060;-92
2022/05/04 03:17:44;;;;;;;15.95;11.70;;;10.70;99.90;;;;;;6218485;23;20135;-91
2022/05/04 03:20:12;;;;;;;16.50;13.38;;;10.60;99.90;;;;;;6187955;23;20016;-91
2022/05/04 03:22:40;;;;;;;16.65;12.13;;;10.60;99.90;;;;;;6214899;23;20011;-91
2022/05/04 03:25:07;;;;;;;17.15;12.13;;;10.60;99.90;;;;;;6213705;23;20015;-89
2022/05/04 03:27:32;;;;;;;22.50;11.43;;;10.60;99.90;;;;;;6214184;23;20502;-90
2022/05/04 03:29:58;;;;;;;20.75;10.82;;;10.70;99.90;;;;;;6214663;23;19996;-89
2022/05/04 03:32:23;;;;;;;14.18;10.85;;;10.70;99.90;;;;;;6214513;23;19996;-90
2022/05/04 03:34:49;;;;;;;13.32;11.05;;;10.60;99.90;;;;;;6216380;23;20515;-90
2022/05/04 03:37:15;;;;;;;16.55;12.18;;;10.50;99.90;;;;;;6217697;23;20013;-90
2022/05/04 03:39:40;;;;;;;12.75;10.82;;;10.50;99.90;;;;;;6218812;23;20120;-90
2022/05/04 03:42:07;;;;;;;16.45;11.32;;;10.50;99.90;;;;;;6191536;23;20004;-90
2022/05/04 03:44:32;;;;;;;16.85;12.07;;;10.50;99.90;;;;;;6216105;23;20004;-91
2022/05/04 03:46:58;;;;;;;14.80;11.32;;;10.50;99.90;;;;;;6217831;23;20020;-92
2022/05/04 03:49:24;;;;;;;15.80;11.82;;;10.50;99.90;;;;;;6235777;23;20392;-92
2022/05/04 03:51:50;;;;;;;17.38;12.52;;;10.50;99.90;;;;;;6226650;23;20008;-93
2022/05/04 03:54:16;;;;;;;15.63;11.65;;;10.50;99.90;;;;;;6225306;23;20012;-93
2022/05/04 03:56:45;;;;;;;19.92;11.98;;;10.30;99.90;;;;;;6225462;23;20000;-93
2022/05/04 03:59:11;;;;;;;14.57;12.40;;;10.20;99.90;;;;;;6229836;23;20004;-93
2022/05/04 04:01:36;;;;;;;19.35;13.85;;;10.30;99.90;;;;;;6203434;23;20003;-93
2022/05/04 04:04:03;;;;;;;18.13;14.00;;;10.30;99.90;;;;;;6227074;23;20009;-92
2022/05/04 04:06:30;;;;;;;20.67;13.77;;;10.40;99.90;;;;;;6227911;23;20048;-93
2022/05/04 04:08:55;;;;;;;15.45;12.50;;;10.30;99.90;;;;;;6227460;23;20028;-93
2022/05/04 04:11:21;;;;;;;22.17;13.27;;;10.40;99.90;;;;;;6226367;23;20005;-93
2022/05/04 04:13:47;;;;;;;19.30;14.05;;;10.40;99.90;;;;;;6228880;23;20023;-93
2022/05/04 04:16:14;;;;;;;18.45;13.90;;;10.50;99.90;;;;;;6228930;23;20060;-92
2022/05/04 04:18:39;;;;;;;18.95;14.35;;;10.50;99.90;;;;;;6228023;23;20056;-93
2022/05/04 04:23:49;;;;;;;20.73;13.50;;;10.50;99.90;;;;;;6226108;23;20020;-92
2022/05/04 04:26:15;;;;;;;19.90;13.52;;;10.50;99.90;;;;;;6214724;23;20008;-89
2022/05/04 04:28:44;;;;;;;15.15;11.80;;;10.60;99.90;;;;;;6217212;23;20079;-91
2022/05/04 04:31:10;;;;;;;19.17;12.93;;;10.50;99.90;;;;;;6212153;23;20008;-89
2022/05/04 04:33:36;;;;;;;14.48;10.75;;;10.40;99.90;;;;;;6213353;23;20004;-89
2022/05/04 04:36:03;;;;;;;18.77;10.80;;;10.40;99.90;;;;;;6188536;23;20506;-87
2022/05/04 04:38:29;;;;;;;14.70;11.00;;;10.40;99.90;;;;;;6215437;23;20000;-90
2022/05/04 04:40:56;;;;;;;19.60;11.15;;;10.50;99.90;;;;;;6212386;23;20012;-88
2022/05/04 04:43:21;;;;;;;13.05;10.27;;;10.40;99.90;;;;;;6216335;23;20075;-88
2022/05/04 04:45:48;;;;;;;13.90;9.95;;;10.50;99.90;;;;;;6214303;23;20059;-88
2022/05/04 04:48:16;;;;;;;19.50;11.13;;;10.50;99.90;;;;;;6215807;23;20009;-88
2022/05/04 04:50:42;;;;;;;15.35;10.25;;;10.50;99.90;;;;;;6213690;23;20035;-88
2022/05/04 04:53:08;;;;;;;14.15;10.85;;;10.50;99.90;;;;;;6215902;23;20008;-87
2022/05/04 04:55:34;;;;;;;18.70;10.02;;;10.50;99.90;;;;;;6214801;23;20004;-88
2022/05/04 04:58:00;;;;;;;17.40;9.63;;;10.50;99.90;;;;;;6189831;23;20087;-88
2022/05/04 05:00:25;;;;;;;18.98;8.90;;;10.50;99.90;;;;;;6188527;23;20036;-88
2022/05/04 05:02:51;;;;;;;18.17;9.45;;;10.60;99.90;;;;;;6215370;23;20008;-88
2022/05/04 05:05:17;;;;;;;15.75;9.45;;;10.70;99.90;;;;;;6216231;23;20026;-87
2022/05/04 05:07:43;;;;;;;13.00;8.63;;;10.70;99.90;;;;;;6215218;23;20001;-87
2022/05/04 05:10:12;;;;;;;18.45;9.80;;;10.70;99.90;;;;;;6216229;23;20012;-88
2022/05/04 05:13:06;;;;;;;10.70;7.90;;;10.70;99.90;;;;;;6197651;23;20008;-88
2022/05/04 05:19:19;;;;;;;12.93;8.48;;;10.80;99.90;;;;;;6193233;23;20328;-87
2022/05/04 05:21:50;;;;;;;16.95;9.55;;;10.80;99.90;;;;;;6214049;23;20009;-88
2022/05/04 05:24:16;;;;;;;13.68;9.15;;;10.80;99.90;;;;;;6214615;23;20012;-88
2022/05/04 05:26:41;;;;;;;15.68;8.82;;;10.80;99.90;;;;;;6214702;23;20050;-90
2022/05/04 05:29:07;;;;;;;14.98;9.18;;;10.90;99.90;;;;;;6214775;23;20056;-89
2022/05/04 05:31:36;;;;;;;19.35;10.10;;;11.00;99.90;;;;;;6212073;23;20378;-89
2022/05/04 05:34:02;;;;;;;12.77;9.20;;;11.00;99.90;;;;;;6215450;23;20537;-89
2022/05/04 05:36:34;;;;;;;14.73;8.30;;;11.10;99.90;;;;;;6212486;23;20005;-90
2022/05/04 05:38:59;;;;;;;12.10;8.27;;;11.10;99.90;;;;;;6214273;23;20003;-89
2022/05/04 05:41:35;;;;;;;12.90;8.43;;;11.10;99.90;;;;;;6213692;23;20021;-90
2022/05/04 05:44:01;;;;;;;19.27;9.70;;;11.20;99.90;;;;;;6211612;23;20005;-88
2022/05/04 05:46:28;;;;;;;14.82;8.43;;;11.30;99.90;;;;;;6214366;23;20027;-89
2022/05/04 05:48:56;;;;;;;11.00;7.93;;;11.30;99.90;;;;;;6213045;23;20002;-89
2022/05/04 05:51:22;;;;;;;10.32;8.05;;;11.40;99.90;;;;;;6213944;23;20012;-89
2022/05/04 05:53:53;;;;;;;17.15;8.07;;;11.40;99.90;;;;;;6214781;23;20001;-89
2022/05/04 05:56:19;;;;;;;12.98;7.95;;;11.60;99.90;;;;;;6214133;23;20004;-89
2022/05/04 05:58:44;;;;;;;15.02;8.60;;;11.70;99.90;;;;;;6188940;23;20012;-91
2022/05/04 06:01:10;;;;;;;15.57;8.30;;;11.70;99.90;;;;;;6215354;23;20012;-90
2022/05/04 06:03:36;;;;;;;12.38;7.93;;;11.80;99.90;;;;;;6212349;23;20017;-88
2022/05/04 06:06:01;;;;;;;13.40;8.52;;;11.80;99.90;;;;;;6213752;23;20005;-90
2022/05/04 06:08:27;;;;;;;9.88;7.20;;;11.90;99.90;;;;;;6213039;23;20011;-90
2022/05/04 06:10:53;;;;;;;12.15;7.95;;;12.00;99.90;;;;;;6214815;23;20449;-90
2022/05/04 06:13:18;;;;;;;14.05;7.95;;;12.00;99.90;;;;;;6214382;23;20007;-90
2022/05/04 06:15:44;;;;;;;17.13;8.05;;;12.10;99.90;;;;;;6187853;23;20011;-90
2022/05/04 06:18:12;;;;;;;19.13;8.40;;;12.20;99.90;;;;;;6188072;23;20008;-91
2022/05/04 06:20:37;;;;;;;10.65;6.88;;;12.20;99.90;;;;;;6213761;23;20013;-90
2022/05/04 06:23:04;;;;;;;10.18;7.30;;;12.30;99.90;;;;;;6187564;23;20106;-89
2022/05/04 06:25:29;;;;;;;12.40;7.90;;;12.30;99.90;;;;;;6214549;23;20008;-90
2022/05/04 06:27:55;;;;;;;10.85;6.82;;;12.50;99.90;;;;;;6215025;23;19997;-90
2022/05/04 06:35:49;;;;;;;15.38;7.30;;;12.60;99.90;;;;;;6233279;23;20084;-90
2022/05/04 06:38:15;;;;;;;11.85;6.97;;;12.60;99.90;;;;;;6218397;23;20012;-87
2022/05/04 06:40:40;;;;;;;13.27;7.28;;;12.70;99.90;;;;;;6215562;23;20035;-88
2022/05/04 06:43:06;;;;;;;10.02;7.15;;;12.80;99.90;;;;;;6214837;23;20415;-88
2022/05/04 06:45:32;;;;;;;10.23;6.57;;;12.80;99.90;;;;;;6215007;23;20115;-87
2022/05/04 06:47:57;;;;;;;11.25;6.57;;;12.90;99.90;;;;;;6214407;23;20076;-87
2022/05/04 06:50:23;;;;;;;12.55;6.78;;;13.00;99.90;;;;;;6187543;23;20000;-87
2022/05/04 06:52:48;;;;;;;11.85;6.20;;;13.00;99.90;;;;;;6214058;23;20029;-87
2022/05/04 06:55:14;;;;;;;11.50;6.68;;;13.10;99.90;;;;;;6187498;23;20004;-88
2022/05/04 06:57:40;;;;;;;15.32;7.13;;;13.20;99.90;;;;;;6212311;23;20076;-88
2022/05/04 07:00:07;;;;;;;13.30;6.95;;;13.20;99.90;;;;;;6214064;23;20334;-87
2022/05/04 07:02:33;;;;;;;9.32;5.75;;;13.40;99.90;;;;;;6210372;23;20447;-88
2022/05/04 07:05:00;;;;;;;8.18;6.00;;;13.50;99.90;;;;;;6210186;23;20058;-88
2022/05/04 07:07:25;;;;;;;9.50;5.78;;;13.50;99.90;;;;;;6212091;23;20044;-88
2022/05/04 07:09:51;;;;;;;10.80;5.65;;;13.60;99.90;;;;;;6187353;23;20451;-88
2022/05/04 07:12:17;;;;;;;8.55;5.95;;;13.70;99.90;;;;;;6210744;23;20370;-88
2022/05/04 07:14:42;;;;;;;6.53;5.30;;;13.70;99.90;;;;;;6216025;23;20016;-87
2022/05/04 07:17:08;;;;;;;12.35;6.28;;;13.80;99.90;;;;;;6216870;23;20032;-87
2022/05/04 07:19:34;;;;;;;12.20;6.55;;;13.80;99.90;;;;;;6218467;23;20005;-87
2022/05/04 07:21:59;;;;;;;12.38;6.28;;;13.80;99.90;;;;;;6215028;23;20008;-88
2022/05/04 07:24:25;;;;;;;12.63;5.63;;;13.90;99.90;;;;;;6217196;23;20351;-89
2022/05/04 07:26:51;;;;;;;7.40;5.93;;;14.10;99.90;;;;;;6218042;23;20051;-89
2022/05/04 07:29:16;;;;;;;12.48;6.18;;;14.20;99.40;;;;;;6218569;23;20000;-87
2022/05/04 07:31:42;;;;;;;8.68;5.65;;;14.30;97.50;;;;;;6191389;23;20087;-87
2022/05/04 07:34:08;;;;;;;7.82;5.82;;;14.40;95.50;;;;;;6217787;23;20012;-88
2022/05/04 07:36:34;;;;;;;11.05;4.88;;;14.50;96.10;;;;;;6218483;23;20000;-88
2022/05/04 07:38:59;;;;;;;9.27;5.15;;;14.60;98.10;;;;;;6216818;23;20011;-88
2022/05/04 07:44:09;;;;;;;7.90;5.88;;;14.80;93.90;;;;;;6216456;23;20402;-87
2022/05/04 07:46:35;;;;;;;10.25;4.93;;;14.90;92.50;;;;;;6217732;23;20009;-87
2022/05/04 07:49:01;;;;;;;6.85;4.38;;;14.90;92.80;;;;;;6191435;23;20047;-89
2022/05/04 07:51:27;;;;;;;8.55;5.72;;;15.10;94.30;;;;;;6218442;23;20012;-88
2022/05/04 07:53:53;;;;;;;9.20;5.78;;;15.20;92.30;;;;;;6220510;23;20314;-89
2022/05/04 07:56:18;;;;;;;7.95;5.38;;;15.30;92.50;;;;;;6193720;23;20008;-88
2022/05/04 07:58:44;;;;;;;7.53;5.43;;;15.30;91.80;;;;;;6221349;23;20001;-89
2022/05/04 08:06:38;;;;;;;8.02;4.57;;;15.50;92.50;;;;;;6217665;23;20074;-88
2022/05/04 08:09:04;;;;;;;12.05;6.13;;;15.60;91.40;;;;;;6215626;23;20423;-88
2022/05/04 08:11:29;;;;;;;8.20;5.70;;;15.80;88.90;;;;;;6214626;23;20603;-88
2022/05/04 08:13:55;;;;;;;8.93;5.78;;;15.70;87.20;;;;;;6216390;23;20308;-88
2022/05/04 08:16:21;;;;;;;10.35;5.15;;;15.80;87.80;;;;;;6214835;23;20012;-89
2022/05/04 08:18:48;;;;;;;6.57;5.40;;;15.70;86.90;;;;;;6216525;23;20064;-88
2022/05/04 08:21:14;;;;;;;7.57;5.38;;;15.80;86.80;;;;;;6189505;23;20009;-88
2022/05/04 08:23:40;;;;;;;8.35;4.82;;;15.90;86.10;;;;;;6216532;23;20005;-88
2022/05/04 08:26:06;;;;;;;7.78;4.57;;;15.90;85.90;;;;;;6235523;23;20044;-88
2022/05/04 08:28:31;;;;;;;9.25;4.63;;;15.80;85.20;;;;;;6224760;23;20004;-88
2022/05/04 08:30:58;;;;;;;6.28;4.82;;;15.80;86.70;;;;;;6214289;23;20001;-88
2022/05/04 08:33:23;;;;;;;8.00;5.55;;;15.90;86.60;;;;;;6214533;23;20005;-88
2022/05/04 08:35:49;;;;;;;7.32;5.35;;;16.00;85.90;;;;;;6216531;23;20478;-89
2022/05/04 08:38:15;;;;;;;8.57;6.15;;;16.00;84.40;;;;;;6216242;23;20016;-89
2022/05/04 08:40:41;;;;;;;9.20;5.32;;;16.10;85.00;;;;;;6214963;23;20036;-88
2022/05/04 08:43:08;;;;;;;9.90;6.80;;;16.10;86.00;;;;;;6213418;23;20058;-88
2022/05/04 08:45:37;;;;;;;9.35;6.10;;;16.20;84.20;;;;;;6213335;23;20004;-87
2022/05/04 08:48:05;;;;;;;7.93;5.97;;;16.30;83.40;;;;;;6213136;23;20075;-88
2022/05/04 08:50:32;;;;;;;10.75;6.57;;;16.40;83.70;;;;;;6214553;23;20001;-87
2022/05/04 08:53:00;;;;;;;9.07;6.68;;;16.40;84.30;;;;;;6215029;23;20371;-88
2022/05/04 08:55:26;;;;;;;9.13;6.85;;;16.50;83.50;;;;;;6188466;23;20083;-87
2022/05/04 08:57:54;;;;;;;13.43;6.88;;;16.50;82.50;;;;;;6214739;23;20051;-88
2022/05/04 09:00:20;;;;;;;9.70;6.43;;;16.80;82.90;;;;;;6214183;23;20004;-88
2022/05/04 09:02:45;;;;;;;8.57;6.07;;;17.10;85.00;;;;;;6214553;23;20410;-89
2022/05/04 09:05:25;;;;;;;11.45;6.65;;;17.10;80.50;;;;;;6214739;23;20086;-88
2022/05/04 09:07:55;;;;;;;10.43;6.50;;;17.30;82.60;;;;;;6187743;23;20084;-88
2022/05/04 09:10:23;;;;;;;8.98;6.43;;;17.40;79.10;;;;;;6212911;23;20063;-87
2022/05/04 09:12:50;;;;;;;9.35;6.45;;;17.50;80.30;;;;;;6212881;23;20087;-87
2022/05/04 09:15:25;;;;;;;9.60;6.32;;;17.60;77.30;;;;;;6215063;23;20072;-88
2022/05/04 09:18:07;;;;;;;7.65;6.00;;;17.80;77.80;;;;;;6214606;23;20005;-88
2022/05/04 09:20:49;;;;;;;;;;;17.80;75.70;;;;;;6214936;23;20076;-87
2022/05/04 09:23:24;;;;;;;7.72;6.32;;;17.80;75.80;;;;;;6214658;23;20315;-89
2022/05/04 09:25:58;;;;;;;8.77;6.55;;;18.00;73.60;;;;;;6214672;23;20008;-88
2022/05/04 09:28:26;;;;;;;8.60;5.65;;;18.00;73.30;;;;;;6214561;23;20023;-88
2022/05/04 09:30:56;;;;;;;8.05;5.95;;;18.00;73.70;;;;;;6212429;23;20055;-89
2022/05/04 09:33:23;;;;;;;7.43;5.70;;;18.00;74.90;;;;;;6214707;23;20001;-89
2022/05/04 09:35:50;;;;;;;6.90;5.70;;;18.10;72.70;;;;;;6215117;23;20024;-89
2022/05/04 09:46:42;;;;;;;8.73;6.00;;;18.70;69.70;;;;;;6214353;23;20015;-88
2022/05/04 09:49:19;;;;;;;10.23;6.13;;;18.80;69.70;;;;;;6212889;23;20077;-89
2022/05/04 09:51:50;;;;;;;10.10;5.82;;;18.90;69.30;;;;;;6214103;23;19997;-88
2022/05/04 09:54:27;;;;;;;;;;;18.70;68.80;;;;;;6215107;23;20037;-88
2022/05/04 09:56:57;;;;;;;8.43;5.90;;;18.70;68.20;;;;;;6187370;23;19900;-89
2022/05/04 09:59:26;;;;;;;8.05;6.40;;;18.70;67.70;;;;;;6187611;23;20347;-87
2022/05/04 10:01:53;;;;;;;8.27;6.30;;;18.80;67.50;;;;;;6186906;23;20009;-89
2022/05/04 10:04:20;;;;;;;8.45;6.28;;;19.00;67.90;;;;;;6214459;23;20382;-88
2022/05/04 10:06:52;;;;;;;8.93;6.50;;;19.20;66.30;;;;;;6214318;23;20005;-88
2022/05/04 10:09:19;;;;;;;12.63;6.97;;;19.50;66.20;;;;;;6214417;23;20000;-89
2022/05/04 10:11:44;;;;;;;9.80;5.47;;;19.70;65.00;;;;;;6210319;23;20005;-89
2022/05/04 10:14:12;;;;;;;12.05;5.78;;;19.70;64.00;;;;;;6213958;23;20051;-88
2022/05/04 10:16:53;;;;;;;7.65;5.90;;;19.70;62.10;;;;;;6214013;23;19996;-89
2022/05/04 10:19:25;;;;;;;12.10;5.40;;;19.40;59.40;;;;;;6197006;23;20013;-89
2022/05/04 10:21:55;;;;;;;7.82;5.32;;;19.10;60.20;;;;;;6205259;23;20032;-90
2022/05/04 10:24:22;;;;;;;7.10;5.80;;;19.00;61.40;;;;;;6214226;23;20004;-89
2022/05/04 10:26:48;;;;;;;8.95;5.03;;;19.10;63.30;;;;;;6214007;23;20033;-88
2022/05/04 10:32:07;;;;;;;7.05;5.40;;;19.50;61.30;;;;;;6213657;23;20040;-89
2022/05/04 10:34:33;;;;;;;7.22;5.95;;;19.40;59.60;;;;;;6214453;23;20012;-88
2022/05/04 10:36:59;;;;;;;11.07;5.78;;;19.10;61.00;;;;;;6214163;23;20000;-89
2022/05/04 10:39:25;;;;;;;10.25;5.75;;;19.20;61.30;;;;;;6187616;23;20066;-87
2022/05/04 10:41:50;;;;;;;9.05;6.28;;;19.30;61.70;;;;;;6186814;23;20005;-88
2022/05/04 10:44:17;;;;;;;10.45;6.20;;;19.40;60.70;;;;;;6213373;23;20008;-88
2022/05/04 10:46:49;;;;;;;7.13;5.55;;;19.80;60.70;;;;;;6212411;23;20004;-89
2022/05/04 10:49:16;;;;;;;10.75;6.07;;;20.40;60.10;;;;;;6214124;23;20000;-89
2022/05/04 10:51:47;;;;;;;7.53;5.63;;;21.00;58.10;;;;;;6211885;23;20000;-89
2022/05/04 10:54:17;;;;;;;13.23;6.32;;;21.40;56.20;;;;;;6212211;23;20001;-89
2022/05/04 10:56:46;;;;;;;10.00;5.63;;;21.50;55.60;;;;;;6213729;23;20001;-90
2022/05/04 10:59:33;;;;;;;10.48;5.57;;;21.40;55.70;;;;;;6212149;23;20422;-89
2022/05/04 11:02:06;;;;;;;11.38;5.93;;;21.20;56.20;;;;;;6211149;23;20439;-89
2022/05/04 11:04:36;;;;;;;10.85;6.13;;;20.90;57.20;;;;;;6212058;23;20092;-89
2022/05/04 11:07:08;;;;;;;13.18;6.55;;;20.90;57.10;;;;;;6213750;23;20001;-88
2022/05/04 11:09:40;;;;;;;10.68;6.40;;;21.30;55.30;;;;;;6213906;23;20072;-89
2022/05/04 11:12:07;;;;;;;10.35;5.90;;;21.60;53.80;;;;;;6211919;23;20327;-89
2022/05/04 11:14:34;;;;;;;7.70;5.35;;;22.20;53.20;;;;;;6212062;23;20380;-89
2022/05/04 11:17:01;;;;;;;9.65;5.65;;;22.70;51.20;;;;;;6214141;23;20005;-89
2022/05/04 11:19:29;;;;;;;8.35;6.20;;;23.20;51.20;;;;;;6213579;23;20015;-89
2022/05/04 11:21:56;;;;;;;9.25;5.50;;;23.50;49.40;;;;;;6211514;23;20008;-89
2022/05/04 11:24:25;;;;;;;8.93;5.45;;;23.60;49.70;;;;;;6213909;23;20080;-89
2022/05/04 11:26:52;;;;;;;9.60;5.63;;;23.80;48.80;;;;;;6213333;23;20224;-90
2022/05/04 11:29:23;;;;;;;6.68;5.47;;;24.00;47.90;;;;;;6213589;23;19997;-89
2022/05/04 11:31:54;;;;;;;10.73;5.35;;;23.60;47.80;;;;;;6213218;23;20024;-89
2022/05/04 11:34:27;;;;;;;5.80;4.65;;;23.00;49.90;;;;;;6212146;23;20059;-89
2022/05/04 11:36:58;;;;;;;7.45;5.32;;;23.10;50.00;;;;;;6214201;23;20044;-89
2022/05/04 11:39:26;;;;;;;5.45;4.32;;;23.50;48.50;;;;;;6213227;23;20040;-87
2022/05/04 11:41:55;;;;;;;6.15;4.90;;;23.90;48.60;;;;;;6213280;23;20037;-88
2022/05/04 11:44:23;;;;;;;12.32;5.00;;;24.30;47.30;;;;;;6213352;23;20009;-88
2022/05/04 11:47:08;;;;;;;6.28;4.63;;;24.80;46.00;;;;;;6213135;23;20431;-89
2022/05/04 11:49:37;;;;;;;8.00;4.07;;;25.00;45.00;;;;;;6213641;23;20071;-88
2022/05/04 11:52:04;;;;;;;6.05;4.50;;;25.50;44.70;;;;;;6212963;23;20005;-89
2022/05/04 11:54:30;;;;;;;5.65;5.05;;;25.30;42.30;;;;;;6214372;23;20327;-87
2022/05/04 11:56:56;;;;;;;5.43;4.32;;;24.50;44.10;;;;;;6215319;23;19996;-88
2022/05/04 11:59:30;;;;;;;10.88;4.88;;;23.90;45.30;;;;;;6215270;23;20502;-89
2022/05/04 12:01:56;;;;;;;5.70;3.88;;;23.90;45.20;;;;;;6214642;23;20000;-88
2022/05/04 12:04:23;;;;;;;6.68;4.50;;;23.70;45.40;;;;;;6215393;23;20070;-88
2022/05/04 12:06:48;;;;;;;6.63;4.43;;;23.50;44.60;;;;;;6215326;23;20005;-88
2022/05/04 12:09:15;;;;;;;8.98;4.95;;;23.20;48.10;;;;;;6215424;23;20062;-88
2022/05/04 12:11:40;;;;;;;5.38;4.88;;;23.00;53.40;;;;;;6181118;23;20329;-89
2022/05/04 12:14:06;;;;;;;6.82;4.97;;;22.70;55.90;;;;;;6185609;23;20043;-88
2022/05/04 12:16:32;;;;;;;8.40;4.97;;;22.20;56.50;;;;;;6214997;23;20024;-89
2022/05/04 12:18:58;;;;;;;7.95;5.05;;;21.80;57.80;;;;;;6188125;23;20005;-88
2022/05/04 12:21:23;;;;;;;9.23;5.22;;;21.40;58.30;;;;;;6214654;23;20055;-89
2022/05/04 12:23:51;;;;;;;6.10;5.50;;;21.20;59.80;;;;;;6188657;23;20375;-88
2022/05/04 12:26:18;;;;;;;7.15;5.80;;;20.90;60.20;;;;;;6189219;23;20408;-88
2022/05/04 12:34:16;;;;;;;5.80;5.20;;;20.80;60.60;;;;;;6214037;23;20047;-89
2022/05/04 12:36:44;;;;;;;6.97;5.05;;;20.90;60.10;;;;;;6188184;23;20005;-89
2022/05/04 12:39:10;;;;;;;7.55;4.80;;;20.60;61.90;;;;;;6215404;23;20024;-89
2022/05/04 12:41:36;;;;;;;6.50;4.70;;;20.80;61.40;;;;;;6212800;23;20074;-89
2022/05/04 12:44:05;;;;;;;9.23;5.15;;;20.50;61.20;;;;;;6215737;23;20004;-89
2022/05/04 12:46:30;;;;;;;6.80;4.72;;;20.50;62.30;;;;;;6214854;23;20012;-90
2022/05/04 12:48:56;;;;;;;7.85;4.88;;;20.70;61.00;;;;;;6215118;23;20008;-89
2022/05/04 12:51:24;;;;;;;5.93;4.60;;;20.90;60.70;;;;;;6214210;23;20005;-89
2022/05/04 12:53:50;;;;;;;10.23;5.55;;;20.80;60.90;;;;;;6214952;23;20050;-89
2022/05/04 12:59:02;;;;;;;9.00;4.90;;;21.10;59.60;;;;;;6214797;23;20015;-89
2022/05/04 13:01:33;;;;;;;7.22;5.50;;;21.10;58.20;;;;;;6215015;23;20000;-89
2022/05/04 13:03:59;;;;;;;9.83;5.13;;;21.20;58.50;;;;;;6214570;23;20088;-89
2022/05/04 13:06:25;;;;;;;7.43;4.80;;;21.50;59.20;;;;;;6213812;23;20313;-89
2022/05/04 13:08:51;;;;;;;6.18;4.50;;;21.90;58.90;;;;;;6188540;23;20007;-90
2022/05/04 13:11:21;;;;;;;7.53;4.50;;;22.20;55.60;;;;;;6213678;23;20083;-88
2022/05/04 13:13:47;;;;;;;8.65;5.22;;;22.60;53.80;;;;;;6212552;23;20000;-90
2022/05/04 13:16:13;;;;;;;6.55;4.88;;;23.00;53.70;;;;;;6213122;23;20009;-88
2022/05/04 13:18:39;;;;;;;5.50;4.53;;;23.10;52.60;;;;;;6187750;23;20064;-88
2022/05/04 13:21:06;;;;;;;5.53;4.85;;;23.40;52.90;;;;;;6214299;23;20454;-89
2022/05/04 13:23:31;;;;;;;6.35;3.75;;;23.90;50.40;;;;;;6213163;23;20064;-88